Time;durP1;ratioP1;P1;durP2;ratioP2;P2;SDS_P1;SDS_P2;PMS_P1;PMS_P2;Temp;Humidity;BMP_temperature;BMP_pressure;BME280_temperature;BME280_humidity;BME280_pressure;Samples;Min_cycle;Max_cycle;Signal;HPM_P1;HPM_P2
2020/12/04 00:02:06;;;;;;;66.95;28.67;;;2.90;99.90;;;;;;5029876;28;20029;-63
2020/12/04 00:04:33;;;;;;;57.92;27.95;;;2.90;99.90;;;;;;5034130;28;20171;-63
2020/12/04 00:07:00;;;;;;;62.60;28.35;;;2.90;99.90;;;;;;5035572;28;20044;-63
2020/12/04 00:09:26;;;;;;;58.05;28.63;;;2.90;99.90;;;;;;5030896;28;20029;-63
2020/12/04 00:11:52;;;;;;;61.63;28.30;;;2.90;99.90;;;;;;5031354;28;20048;-63
2020/12/04 00:14:18;;;;;;;58.15;27.95;;;2.90;99.90;;;;;;5032885;28;20046;-64
2020/12/04 00:16:44;;;;;;;62.72;30.02;;;2.90;99.90;;;;;;5034606;28;20726;-63
2020/12/04 00:19:10;;;;;;;55.85;28.55;;;2.80;99.90;;;;;;5035167;28;20033;-63
2020/12/04 00:21:36;;;;;;;62.30;30.20;;;2.80;99.90;;;;;;5034668;28;20038;-63
2020/12/04 00:24:03;;;;;;;58.72;28.15;;;2.90;99.90;;;;;;5030443;28;20652;-63
2020/12/04 00:26:28;;;;;;;67.15;30.52;;;2.80;99.90;;;;;;5033468;28;20608;-63
2020/12/04 00:28:54;;;;;;;58.60;27.35;;;2.80;99.90;;;;;;5033690;28;20307;-63
2020/12/04 00:31:20;;;;;;;58.47;27.85;;;2.80;99.90;;;;;;5033673;28;20032;-63
2020/12/04 00:33:46;;;;;;;57.92;28.33;;;2.90;99.90;;;;;;5034342;28;20495;-63
2020/12/04 00:36:12;;;;;;;60.05;27.30;;;2.80;99.90;;;;;;5031190;28;20032;-63
2020/12/04 00:38:38;;;;;;;59.45;27.90;;;2.90;99.90;;;;;;5032281;28;20033;-64
2020/12/04 00:41:04;;;;;;;62.75;30.00;;;2.90;99.90;;;;;;5032801;28;20091;-64
2020/12/04 00:43:30;;;;;;;51.95;28.80;;;2.90;99.90;;;;;;5033104;28;20041;-63
2020/12/04 00:45:56;;;;;;;60.08;28.38;;;2.90;99.90;;;;;;5038209;28;20392;-64
2020/12/04 00:48:22;;;;;;;58.95;28.48;;;2.90;99.90;;;;;;5036670;28;20033;-64
2020/12/04 00:50:48;;;;;;;57.13;27.30;;;2.90;99.90;;;;;;5039259;28;20048;-64
2020/12/04 00:53:13;;;;;;;57.13;27.27;;;2.90;99.90;;;;;;5012583;28;20605;-63
2020/12/04 00:55:39;;;;;;;54.85;27.10;;;2.80;99.90;;;;;;5038708;28;20037;-64
2020/12/04 00:58:05;;;;;;;55.65;27.70;;;2.80;99.90;;;;;;5038006;28;20069;-64
2020/12/04 01:00:31;;;;;;;54.95;28.52;;;2.90;99.90;;;;;;5036470;28;20048;-64
2020/12/04 01:02:57;;;;;;;57.35;27.17;;;2.80;99.90;;;;;;5035496;28;20139;-64
2020/12/04 01:05:23;;;;;;;55.78;28.52;;;2.90;99.90;;;;;;5034561;28;20029;-63
2020/12/04 01:07:48;;;;;;;53.30;27.85;;;2.80;99.90;;;;;;5036107;28;20025;-63
2020/12/04 01:10:14;;;;;;;53.63;26.55;;;2.80;99.90;;;;;;5010552;28;20048;-63
2020/12/04 01:12:42;;;;;;;51.70;25.98;;;2.90;99.90;;;;;;5033006;28;20033;-64
2020/12/04 01:15:11;;;;;;;56.30;28.02;;;2.80;99.90;;;;;;5031962;28;20037;-64
2020/12/04 01:17:37;;;;;;;55.65;26.35;;;2.80;99.90;;;;;;5035085;28;20036;-64
2020/12/04 01:20:04;;;;;;;52.80;25.83;;;2.80;99.90;;;;;;5037599;28;20033;-64
2020/12/04 01:22:31;;;;;;;57.03;27.52;;;2.90;99.90;;;;;;5036266;28;20512;-65
2020/12/04 01:24:57;;;;;;;54.40;26.17;;;2.90;99.90;;;;;;5032706;28;20419;-64
2020/12/04 01:27:23;;;;;;;51.88;27.20;;;2.90;99.90;;;;;;5037502;28;20158;-64
2020/12/04 01:29:49;;;;;;;57.40;27.80;;;2.90;99.90;;;;;;5038460;28;20417;-63
2020/12/04 01:32:15;;;;;;;57.97;28.73;;;2.90;99.90;;;;;;5033111;28;20075;-64
2020/12/04 01:34:41;;;;;;;57.08;27.30;;;2.90;99.90;;;;;;5031670;28;20639;-64
2020/12/04 01:37:07;;;;;;;58.13;28.15;;;2.80;99.90;;;;;;5028675;28;20153;-64
2020/12/04 01:39:32;;;;;;;49.42;26.60;;;2.90;99.90;;;;;;5035912;28;20033;-64
2020/12/04 01:41:58;;;;;;;53.45;26.58;;;2.90;99.90;;;;;;5037800;28;20033;-64
2020/12/04 01:44:24;;;;;;;56.40;27.35;;;2.90;99.90;;;;;;5032529;28;20068;-64
2020/12/04 01:46:50;;;;;;;55.88;26.90;;;2.90;99.90;;;;;;5033508;28;20041;-64
2020/12/04 01:49:17;;;;;;;54.30;26.98;;;2.90;99.90;;;;;;5034135;28;20033;-64
2020/12/04 01:51:43;;;;;;;53.28;26.40;;;2.90;99.90;;;;;;5035692;28;20029;-65
2020/12/04 01:54:10;;;;;;;54.35;26.08;;;2.90;99.90;;;;;;5035430;28;20415;-64
2020/12/04 01:56:39;;;;;;;46.40;24.35;;;2.90;99.90;;;;;;5035526;28;20025;-64
2020/12/04 01:59:06;;;;;;;52.03;26.02;;;2.90;99.90;;;;;;5037421;28;20040;-65
2020/12/04 02:01:34;;;;;;;52.22;26.27;;;2.90;99.90;;;;;;5036192;28;20518;-64
2020/12/04 02:04:00;;;;;;;50.22;25.92;;;2.90;99.90;;;;;;5036199;28;20473;-64
2020/12/04 02:06:42;;;;;;;51.28;25.65;;;2.90;99.90;;;;;;5035288;28;20033;-65
2020/12/04 02:09:25;;;;;;;52.78;25.98;;;2.90;99.90;;;;;;5011340;28;20094;-64
2020/12/04 02:11:54;;;;;;;54.25;25.13;;;2.80;99.90;;;;;;5033170;28;20670;-64
2020/12/04 02:14:21;;;;;;;52.75;26.38;;;2.90;99.90;;;;;;5033767;28;20479;-64
2020/12/04 02:16:47;;;;;;;50.70;25.58;;;3.00;99.90;;;;;;5032372;28;20024;-65
2020/12/04 02:19:13;;;;;;;48.28;25.92;;;3.00;99.90;;;;;;5036305;28;20029;-65
2020/12/04 02:21:41;;;;;;;54.47;25.90;;;3.00;99.90;;;;;;5034524;28;20571;-65
2020/12/04 02:24:07;;;;;;;56.03;25.90;;;3.00;99.90;;;;;;5034641;28;20055;-64
2020/12/04 02:26:34;;;;;;;53.47;25.40;;;3.00;99.90;;;;;;5033445;28;20053;-64
2020/12/04 02:29:03;;;;;;;49.88;24.90;;;3.00;99.90;;;;;;5033357;28;20048;-64
2020/12/04 02:31:30;;;;;;;49.78;24.05;;;3.00;99.90;;;;;;5036178;28;20037;-64
2020/12/04 02:33:56;;;;;;;53.50;25.05;;;3.00;99.90;;;;;;5033960;28;20037;-64
2020/12/04 02:36:22;;;;;;;50.08;24.42;;;3.00;99.90;;;;;;5034228;28;20523;-64
2020/12/04 02:38:48;;;;;;;48.05;23.65;;;3.00;99.90;;;;;;5032718;28;20590;-64
2020/12/04 02:41:14;;;;;;;49.20;23.83;;;2.90;99.90;;;;;;5034759;28;20048;-64
2020/12/04 02:43:39;;;;;;;46.45;23.90;;;3.00;99.90;;;;;;5032591;28;20033;-65
2020/12/04 02:46:07;;;;;;;51.47;25.48;;;2.90;99.90;;;;;;5031630;28;20026;-64
2020/12/04 02:48:33;;;;;;;50.05;24.25;;;2.90;99.90;;;;;;5035427;28;20052;-64
2020/12/04 02:50:59;;;;;;;52.72;23.70;;;3.00;99.90;;;;;;5034294;28;20462;-64
2020/12/04 02:53:25;;;;;;;48.67;23.75;;;3.00;99.90;;;;;;5032797;28;20025;-64
2020/12/04 02:55:51;;;;;;;45.72;23.60;;;2.90;99.90;;;;;;5033288;28;20036;-64
2020/12/04 02:58:17;;;;;;;49.25;22.85;;;3.00;99.90;;;;;;5034202;28;20519;-64
2020/12/04 03:00:43;;;;;;;47.85;23.13;;;3.00;99.90;;;;;;5033155;28;20475;-64
2020/12/04 03:03:08;;;;;;;44.05;23.88;;;2.90;99.90;;;;;;5035646;28;20140;-64
2020/12/04 03:05:34;;;;;;;48.05;23.67;;;3.00;99.90;;;;;;5033913;28;20118;-64
2020/12/04 03:08:00;;;;;;;49.35;23.75;;;3.00;99.90;;;;;;5035164;28;20063;-63
2020/12/04 03:10:26;;;;;;;45.45;23.33;;;3.00;99.90;;;;;;5036078;28;20463;-64
2020/12/04 03:12:52;;;;;;;45.78;22.98;;;3.00;99.90;;;;;;5033667;28;20446;-64
2020/12/04 03:15:17;;;;;;;48.17;23.38;;;2.90;99.90;;;;;;5035421;28;20036;-64
2020/12/04 03:17:43;;;;;;;42.78;22.83;;;2.90;99.90;;;;;;5033304;28;20033;-64
2020/12/04 03:20:09;;;;;;;44.67;22.35;;;3.00;99.90;;;;;;5035629;28;20077;-63
2020/12/04 03:22:35;;;;;;;45.70;22.70;;;3.00;99.90;;;;;;5034896;28;20028;-63
2020/12/04 03:25:02;;;;;;;40.10;21.35;;;2.90;99.90;;;;;;5033797;28;20028;-63
2020/12/04 03:27:28;;;;;;;45.03;21.67;;;2.90;99.90;;;;;;5032954;28;20037;-63
2020/12/04 03:29:54;;;;;;;42.85;22.13;;;3.00;99.90;;;;;;5034775;28;20036;-64
2020/12/04 03:32:20;;;;;;;47.22;21.58;;;3.00;99.90;;;;;;5029618;28;20033;-64
2020/12/04 03:34:46;;;;;;;38.60;20.08;;;3.00;99.90;;;;;;5032585;28;20033;-64
2020/12/04 03:37:11;;;;;;;41.45;19.83;;;3.00;99.90;;;;;;5033243;28;20466;-64
2020/12/04 03:39:37;;;;;;;40.33;18.98;;;3.00;99.90;;;;;;5027412;28;20071;-64
2020/12/04 03:42:04;;;;;;;39.67;19.02;;;3.00;99.90;;;;;;5028648;28;20554;-64
2020/12/04 03:44:30;;;;;;;47.22;21.13;;;3.00;99.90;;;;;;5031456;28;20032;-64
2020/12/04 03:46:57;;;;;;;38.55;18.95;;;3.00;99.90;;;;;;5027566;28;20032;-64
2020/12/04 03:49:23;;;;;;;38.22;17.83;;;3.10;99.90;;;;;;5033320;28;20032;-64
2020/12/04 03:51:49;;;;;;;39.30;19.17;;;3.10;99.90;;;;;;5035213;28;20037;-64
2020/12/04 03:54:15;;;;;;;36.15;17.17;;;3.10;99.90;;;;;;5030927;28;20036;-64
2020/12/04 03:56:41;;;;;;;39.50;18.70;;;3.10;99.90;;;;;;5031857;28;20609;-64
2020/12/04 03:59:07;;;;;;;30.92;15.95;;;3.10;99.90;;;;;;5036171;28;20840;-64
2020/12/04 04:01:34;;;;;;;30.80;15.50;;;3.10;99.90;;;;;;5034875;28;20053;-64
2020/12/04 04:04:00;;;;;;;34.83;16.73;;;3.20;99.90;;;;;;5031957;28;20108;-64
2020/12/04 04:06:26;;;;;;;31.70;16.45;;;3.30;99.90;;;;;;5031891;28;20029;-65
2020/12/04 04:08:52;;;;;;;30.38;15.95;;;3.30;99.90;;;;;;5016322;28;20256;-64
2020/12/04 04:11:18;;;;;;;29.42;15.00;;;3.40;99.90;;;;;;5035226;28;20033;-62
2020/12/04 04:13:44;;;;;;;34.22;15.43;;;3.40;99.90;;;;;;5032861;28;20061;-62
2020/12/04 04:16:10;;;;;;;33.13;16.52;;;3.40;99.90;;;;;;5032689;28;20628;-63
2020/12/04 04:18:37;;;;;;;30.95;14.32;;;3.40;99.90;;;;;;5031316;28;20033;-62
2020/12/04 04:21:08;;;;;;;29.88;15.95;;;3.40;99.90;;;;;;5039251;28;20095;-62
2020/12/04 04:23:34;;;;;;;26.30;14.00;;;3.40;99.90;;;;;;5029822;28;20061;-63
2020/12/04 04:26:00;;;;;;;31.15;14.30;;;3.40;99.90;;;;;;5023518;28;20102;-62
2020/12/04 04:28:26;;;;;;;33.03;15.25;;;3.40;99.90;;;;;;5029806;28;20494;-62
2020/12/04 04:30:52;;;;;;;31.60;14.75;;;3.40;99.90;;;;;;5026924;28;20033;-62
2020/12/04 04:33:18;;;;;;;31.90;15.82;;;3.50;99.90;;;;;;5028483;28;20034;-62
2020/12/04 04:35:44;;;;;;;34.42;17.50;;;3.50;99.90;;;;;;5031371;28;20519;-62
2020/12/04 04:38:09;;;;;;;42.13;19.27;;;3.40;99.90;;;;;;5030000;28;20098;-63
2020/12/04 04:40:35;;;;;;;37.25;18.67;;;3.40;99.90;;;;;;5013224;28;20575;-62
2020/12/04 04:43:10;;;;;;;46.30;20.30;;;3.50;99.90;;;;;;5035392;28;20040;-62
2020/12/04 04:45:40;;;;;;;37.58;18.88;;;3.50;99.90;;;;;;5034519;28;20029;-62
2020/12/04 04:48:11;;;;;;;40.15;20.42;;;3.40;99.90;;;;;;5023403;28;20147;-62
2020/12/04 04:50:40;;;;;;;40.80;18.65;;;3.50;99.90;;;;;;5009836;28;20033;-62
2020/12/04 04:53:07;;;;;;;40.00;19.05;;;3.50;99.90;;;;;;5022277;28;20467;-62
2020/12/04 04:55:32;;;;;;;35.67;19.33;;;3.50;99.90;;;;;;5021516;28;20491;-63
2020/12/04 04:57:59;;;;;;;38.58;18.23;;;3.40;99.90;;;;;;5032096;28;20071;-65
2020/12/04 05:00:26;;;;;;;48.00;19.52;;;3.50;99.90;;;;;;5024152;28;20726;-65
2020/12/04 05:02:52;;;;;;;39.95;17.80;;;3.50;99.90;;;;;;5030964;28;20548;-65
2020/12/04 05:05:18;;;;;;;45.00;19.52;;;3.50;99.90;;;;;;5029161;28;20032;-66
2020/12/04 05:07:44;;;;;;;38.72;18.23;;;3.50;99.90;;;;;;5030558;28;20480;-65
2020/12/04 05:10:10;;;;;;;37.67;17.15;;;3.40;99.90;;;;;;5030595;28;20035;-64
2020/12/04 05:12:37;;;;;;;40.33;18.10;;;3.40;99.90;;;;;;5031419;28;22310;-65
2020/12/04 05:15:23;;;;;;;41.70;19.83;;;3.40;99.90;;;;;;5032968;28;20037;-65
2020/12/04 05:18:07;;;;;;;38.78;17.73;;;3.40;99.90;;;;;;5023477;28;20025;-65
2020/12/04 05:20:48;;;;;;;37.92;17.55;;;3.40;99.90;;;;;;5036032;28;20056;-65
2020/12/04 05:23:14;;;;;;;39.10;17.67;;;3.40;99.90;;;;;;5033354;28;21347;-64
2020/12/04 05:25:45;;;;;;;33.67;15.93;;;3.40;99.90;;;;;;5012193;28;20033;-65
2020/12/04 05:28:14;;;;;;;;;;;3.40;99.90;;;;;;5017473;28;20103;-64
2020/12/04 05:30:43;;;;;;;34.60;15.75;;;3.40;99.90;;;;;;5024169;28;20410;-65
2020/12/04 05:33:09;;;;;;;31.65;14.93;;;3.50;99.90;;;;;;5017903;28;20072;-65
2020/12/04 05:35:36;;;;;;;32.08;14.00;;;3.40;99.90;;;;;;5021564;28;20569;-65
2020/12/04 05:38:08;;;;;;;30.85;14.65;;;3.50;99.90;;;;;;5018544;28;20455;-65
2020/12/04 05:40:35;;;;;;;31.10;15.07;;;3.50;99.90;;;;;;5012836;28;20098;-66
2020/12/04 05:43:02;;;;;;;35.00;16.70;;;3.50;99.90;;;;;;5022464;28;20070;-65
2020/12/04 05:45:28;;;;;;;27.48;14.73;;;3.50;99.90;;;;;;5027161;28;20427;-65
2020/12/04 05:47:54;;;;;;;33.05;17.10;;;3.40;99.90;;;;;;5017369;28;20552;-66
2020/12/04 05:50:20;;;;;;;30.83;15.57;;;3.40;99.90;;;;;;5019203;28;20044;-65
2020/12/04 05:52:48;;;;;;;30.33;14.73;;;3.40;99.90;;;;;;5015004;28;20342;-65
2020/12/04 05:55:15;;;;;;;31.67;15.32;;;3.40;99.90;;;;;;5032915;28;20491;-65
2020/12/04 05:57:59;;;;;;;25.08;13.48;;;3.40;99.90;;;;;;5002862;28;20056;-65
2020/12/04 06:00:25;;;;;;;31.08;14.38;;;3.40;99.90;;;;;;5027342;28;20075;-65
2020/12/04 06:03:04;;;;;;;31.48;14.73;;;3.40;99.90;;;;;;5031483;28;20105;-66
2020/12/04 06:05:31;;;;;;;28.77;13.52;;;3.40;99.90;;;;;;5019559;28;20404;-65
2020/12/04 06:08:03;;;;;;;27.95;13.02;;;3.50;99.90;;;;;;5036562;28;20021;-65
2020/12/04 06:10:31;;;;;;;27.58;14.07;;;3.40;99.90;;;;;;5036013;28;20440;-65
2020/12/04 06:12:58;;;;;;;27.55;13.35;;;3.40;99.90;;;;;;5031756;28;20090;-65
2020/12/04 06:15:31;;;;;;;25.75;12.82;;;3.40;99.90;;;;;;5029889;28;20029;-65
2020/12/04 06:18:08;;;;;;;27.02;13.65;;;3.40;99.90;;;;;;5036095;28;20037;-65
2020/12/04 06:20:40;;;;;;;30.92;14.65;;;3.40;99.90;;;;;;5018451;28;20701;-64
2020/12/04 06:23:12;;;;;;;21.77;12.20;;;3.40;99.90;;;;;;5036676;28;20025;-65
2020/12/04 06:25:54;;;;;;;29.17;11.82;;;3.40;99.90;;;;;;5035975;28;20029;-65
2020/12/04 06:28:25;;;;;;;23.42;12.15;;;3.40;99.90;;;;;;5036029;28;20025;-65
2020/12/04 06:31:00;;;;;;;24.13;12.48;;;3.40;99.90;;;;;;5038800;28;20120;-65
2020/12/04 06:33:38;;;;;;;27.30;13.60;;;3.40;99.90;;;;;;5029220;28;20563;-65
2020/12/04 06:36:06;;;;;;;24.60;11.85;;;3.30;99.90;;;;;;5003369;28;20033;-65
2020/12/04 06:38:35;;;;;;;22.15;12.35;;;3.30;99.90;;;;;;5034115;28;20078;-65
2020/12/04 06:41:20;;;;;;;23.83;12.82;;;3.30;99.90;;;;;;5018226;28;20431;-65
2020/12/04 06:43:47;;;;;;;24.95;11.98;;;3.30;99.90;;;;;;5036168;28;20505;-65
2020/12/04 06:46:28;;;;;;;22.30;10.80;;;3.30;99.90;;;;;;5032588;28;20496;-65
2020/12/04 06:52:04;;;;;;;22.83;11.73;;;3.30;99.90;;;;;;5031655;28;20287;-65
2020/12/04 06:54:36;;;;;;;27.58;12.75;;;3.20;99.90;;;;;;5036350;28;20033;-65
2020/12/04 06:57:02;;;;;;;23.50;11.10;;;3.10;99.90;;;;;;5036947;28;20079;-65
2020/12/04 06:59:34;;;;;;;21.52;11.48;;;3.10;99.90;;;;;;5033175;28;20020;-65
2020/12/04 07:02:04;;;;;;;22.90;11.68;;;3.20;99.90;;;;;;5010332;28;20084;-65
2020/12/04 07:04:32;;;;;;;22.58;11.55;;;3.10;99.90;;;;;;5033609;28;20033;-65
2020/12/04 07:07:03;;;;;;;28.70;12.10;;;3.10;99.90;;;;;;5035403;28;20044;-66
2020/12/04 07:09:29;;;;;;;22.45;12.52;;;3.10;99.90;;;;;;5035143;28;20072;-65
2020/12/04 07:11:58;;;;;;;25.27;12.73;;;3.10;99.90;;;;;;5038061;28;20033;-65
2020/12/04 07:14:24;;;;;;;24.75;12.18;;;3.00;99.90;;;;;;5035011;28;20029;-66
2020/12/04 07:16:50;;;;;;;27.05;13.55;;;3.00;99.90;;;;;;5034190;28;20040;-65
2020/12/04 07:19:16;;;;;;;26.05;14.20;;;3.00;99.90;;;;;;5034049;28;20508;-65
2020/12/04 07:21:42;;;;;;;25.70;14.15;;;3.00;99.90;;;;;;5036425;28;20459;-65
2020/12/04 07:24:08;;;;;;;28.10;13.43;;;3.00;99.90;;;;;;5035049;28;20029;-65
2020/12/04 07:26:35;;;;;;;27.90;15.02;;;3.00;99.90;;;;;;5037612;28;20040;-65
2020/12/04 07:29:02;;;;;;;27.45;13.95;;;2.90;99.90;;;;;;5037276;28;20036;-66
2020/12/04 07:31:28;;;;;;;28.98;15.05;;;2.90;99.90;;;;;;5032925;28;20426;-65
2020/12/04 07:34:00;;;;;;;27.58;15.48;;;2.90;99.90;;;;;;5016184;28;20052;-66
2020/12/04 07:36:28;;;;;;;29.65;16.33;;;3.00;99.90;;;;;;5034212;28;20056;-65
2020/12/04 07:38:59;;;;;;;30.90;16.67;;;2.90;99.90;;;;;;5036379;28;20110;-65
2020/12/04 07:41:36;;;;;;;31.38;15.80;;;2.90;99.90;;;;;;5033946;28;20045;-65
2020/12/04 07:44:12;;;;;;;32.17;16.42;;;2.80;99.90;;;;;;5030093;28;20024;-65
2020/12/04 07:46:37;;;;;;;29.55;15.88;;;2.80;99.90;;;;;;5032053;28;20040;-65
2020/12/04 07:49:09;;;;;;;31.98;15.88;;;2.80;99.90;;;;;;5032431;28;20033;-66
2020/12/04 07:51:37;;;;;;;36.20;17.40;;;2.80;99.90;;;;;;5035060;28;20025;-66
2020/12/04 07:54:21;;;;;;;32.30;16.17;;;2.90;99.90;;;;;;5035410;28;20071;-65
2020/12/04 07:56:53;;;;;;;28.95;15.90;;;2.80;99.90;;;;;;5034238;28;20055;-65
2020/12/04 07:59:26;;;;;;;31.45;17.13;;;2.80;99.90;;;;;;5036777;28;20489;-65
2020/12/04 08:01:52;;;;;;;32.10;16.45;;;2.80;99.90;;;;;;5035569;28;20466;-65
2020/12/04 08:04:19;;;;;;;29.85;14.82;;;2.80;99.90;;;;;;5034558;28;20028;-65
2020/12/04 08:06:48;;;;;;;39.15;19.00;;;2.80;99.90;;;;;;5033883;28;20040;-65
2020/12/04 08:09:19;;;;;;;36.65;18.05;;;2.70;99.90;;;;;;5033677;28;20078;-65
2020/12/04 08:12:08;;;;;;;35.47;17.75;;;2.70;99.90;;;;;;5036582;28;20032;-64
2020/12/04 08:14:35;;;;;;;40.05;19.08;;;2.70;99.90;;;;;;5034843;28;20573;-64
2020/12/04 08:17:01;;;;;;;33.13;17.98;;;2.70;99.90;;;;;;5033303;28;20040;-65
2020/12/04 08:19:31;;;;;;;32.70;16.75;;;2.70;99.90;;;;;;5036414;28;20118;-65
2020/12/04 08:22:08;;;;;;;35.50;17.67;;;2.70;99.90;;;;;;5036847;28;20439;-65
2020/12/04 08:24:36;;;;;;;33.92;17.38;;;2.70;99.90;;;;;;5034109;28;20061;-65
2020/12/04 08:27:02;;;;;;;34.13;17.77;;;2.70;99.90;;;;;;5035333;28;20168;-65
2020/12/04 08:29:28;;;;;;;33.90;18.52;;;2.70;99.90;;;;;;5035319;28;20033;-65
2020/12/04 08:32:11;;;;;;;32.70;18.30;;;2.70;99.90;;;;;;5036623;28;20088;-65
2020/12/04 08:34:38;;;;;;;34.22;17.60;;;2.60;99.90;;;;;;5014337;28;20517;-65
2020/12/04 08:37:11;;;;;;;33.78;17.85;;;2.60;99.90;;;;;;5036450;28;20048;-65
2020/12/04 08:39:46;;;;;;;32.60;17.67;;;2.60;99.90;;;;;;5015492;28;20466;-65
2020/12/04 08:42:23;;;;;;;34.78;17.63;;;2.60;99.90;;;;;;5034666;28;20485;-65
2020/12/04 08:44:58;;;;;;;37.22;19.00;;;2.70;99.90;;;;;;5033715;28;20044;-65
2020/12/04 08:47:32;;;;;;;33.55;18.52;;;2.60;99.90;;;;;;5035291;28;20037;-65
2020/12/04 08:50:07;;;;;;;35.58;18.88;;;2.60;99.90;;;;;;5034213;28;20036;-64
2020/12/04 08:52:35;;;;;;;36.40;18.83;;;2.60;99.90;;;;;;5026900;28;20036;-65
2020/12/04 08:55:09;;;;;;;35.00;18.33;;;2.60;99.90;;;;;;5025678;28;20641;-66
2020/12/04 08:57:35;;;;;;;35.28;18.90;;;2.60;99.90;;;;;;5036092;28;20025;-66
2020/12/04 09:00:01;;;;;;;36.00;17.33;;;2.60;99.90;;;;;;5034551;28;20048;-66
2020/12/04 09:02:27;;;;;;;35.42;19.35;;;2.70;99.90;;;;;;5034918;28;20144;-65
2020/12/04 09:04:54;;;;;;;33.97;17.85;;;2.60;99.90;;;;;;5030219;28;20559;-65
2020/12/04 09:07:20;;;;;;;44.53;20.63;;;2.70;99.90;;;;;;5037926;28;20450;-65
2020/12/04 09:09:45;;;;;;;36.20;18.92;;;2.60;99.90;;;;;;5036281;28;20406;-66
2020/12/04 09:12:11;;;;;;;38.63;20.15;;;2.60;99.90;;;;;;5020433;28;20044;-65
2020/12/04 09:14:37;;;;;;;46.33;21.38;;;2.60;99.90;;;;;;4994036;28;20594;-65
2020/12/04 09:17:03;;;;;;;37.58;19.95;;;2.60;99.90;;;;;;5035690;28;20580;-66
2020/12/04 09:19:29;;;;;;;37.10;19.90;;;2.60;99.90;;;;;;5035570;28;20094;-64
2020/12/04 09:21:55;;;;;;;40.90;19.67;;;2.60;99.90;;;;;;5037620;28;20139;-65
2020/12/04 09:24:20;;;;;;;42.08;20.58;;;2.60;99.90;;;;;;5037518;28;20033;-65
2020/12/04 09:26:46;;;;;;;41.72;21.95;;;2.50;99.90;;;;;;5038260;28;20033;-65
2020/12/04 09:29:12;;;;;;;42.70;20.48;;;2.50;99.90;;;;;;5039364;28;20551;-65
2020/12/04 09:31:38;;;;;;;43.65;21.40;;;2.60;99.90;;;;;;5011268;28;20029;-65
2020/12/04 09:34:04;;;;;;;40.67;20.02;;;2.50;99.90;;;;;;5033596;28;20029;-65
2020/12/04 09:36:30;;;;;;;35.10;18.20;;;2.50;99.90;;;;;;5039847;28;20045;-65
2020/12/04 09:38:56;;;;;;;37.45;20.90;;;2.50;99.90;;;;;;5036395;28;20036;-65
2020/12/04 09:41:21;;;;;;;44.03;21.02;;;2.50;99.90;;;;;;5038146;28;20052;-65
2020/12/04 09:43:47;;;;;;;40.45;20.27;;;2.50;99.90;;;;;;5037376;28;20048;-66
2020/12/04 09:46:13;;;;;;;41.88;20.98;;;2.50;99.90;;;;;;5036223;28;20039;-66
2020/12/04 09:48:39;;;;;;;42.17;21.38;;;2.60;99.90;;;;;;5039123;28;20049;-69
2020/12/04 09:51:05;;;;;;;40.58;21.10;;;2.60;99.90;;;;;;5039518;28;20331;-65
2020/12/04 09:53:31;;;;;;;35.42;19.55;;;2.60;99.90;;;;;;5034739;28;20044;-65
2020/12/04 09:55:57;;;;;;;44.10;20.65;;;2.50;99.90;;;;;;5038555;28;20048;-65
2020/12/04 09:58:22;;;;;;;42.63;20.92;;;2.50;99.90;;;;;;5037409;28;20454;-65
2020/12/04 10:00:48;;;;;;;36.67;18.25;;;2.60;99.90;;;;;;5035087;28;20040;-65
2020/12/04 10:03:14;;;;;;;45.25;21.50;;;2.60;99.90;;;;;;5037579;28;20091;-64
2020/12/04 10:05:40;;;;;;;39.55;20.98;;;2.60;99.90;;;;;;5035258;28;20433;-65
2020/12/04 10:08:06;;;;;;;38.20;19.77;;;2.60;99.90;;;;;;5038613;28;20033;-65
2020/12/04 10:10:31;;;;;;;44.47;21.05;;;2.60;99.90;;;;;;5036490;28;20036;-65
2020/12/04 10:12:57;;;;;;;37.20;20.27;;;2.60;99.90;;;;;;5033107;28;20036;-65
2020/12/04 10:15:23;;;;;;;41.63;20.52;;;2.60;99.90;;;;;;5036660;28;20029;-65
2020/12/04 10:17:49;;;;;;;40.67;20.40;;;2.60;99.90;;;;;;5028260;28;20693;-64
2020/12/04 10:20:15;;;;;;;37.13;20.58;;;2.60;99.90;;;;;;5037437;28;20537;-64
2020/12/04 10:22:40;;;;;;;41.20;20.45;;;2.60;99.90;;;;;;5038417;28;20029;-65
2020/12/04 10:25:06;;;;;;;41.83;22.55;;;2.60;99.90;;;;;;5037384;28;20029;-65
2020/12/04 10:27:32;;;;;;;39.88;20.02;;;2.60;99.90;;;;;;5037252;28;20506;-65
2020/12/04 10:29:58;;;;;;;45.03;21.83;;;2.70;99.90;;;;;;5034547;28;20029;-66
2020/12/04 10:32:24;;;;;;;39.92;21.40;;;2.70;99.90;;;;;;5036728;28;20091;-65
2020/12/04 10:34:50;;;;;;;42.67;21.15;;;2.70;99.90;;;;;;5034347;28;20029;-65
2020/12/04 10:37:15;;;;;;;50.58;22.88;;;2.70;99.90;;;;;;5037049;28;20732;-66
2020/12/04 10:39:41;;;;;;;45.78;22.30;;;2.70;99.90;;;;;;5035440;28;20033;-65
2020/12/04 10:42:07;;;;;;;43.00;22.27;;;2.70;99.90;;;;;;5034377;28;20455;-65
2020/12/04 10:44:33;;;;;;;44.15;22.30;;;2.70;99.90;;;;;;5034996;28;20435;-65
2020/12/04 10:46:59;;;;;;;44.30;22.23;;;2.70;99.90;;;;;;5036279;28;20433;-65
2020/12/04 10:49:25;;;;;;;42.10;20.98;;;2.70;99.90;;;;;;5038240;28;20028;-65
2020/12/04 10:51:57;;;;;;;43.85;20.92;;;2.70;99.90;;;;;;5036725;28;20632;-65
2020/12/04 10:54:24;;;;;;;44.47;22.40;;;2.70;99.90;;;;;;5028577;28;20629;-65
2020/12/04 10:56:56;;;;;;;48.65;23.75;;;2.70;99.90;;;;;;5034488;28;20025;-65
2020/12/04 10:59:22;;;;;;;48.03;23.92;;;2.70;99.90;;;;;;5038506;28;20040;-65
2020/12/04 11:01:57;;;;;;;46.80;23.65;;;2.70;99.90;;;;;;5035654;28;20072;-65
2020/12/04 11:07:09;;;;;;;45.05;22.67;;;2.70;99.90;;;;;;5029758;28;20060;-65
2020/12/04 11:09:35;;;;;;;50.03;23.25;;;2.70;99.90;;;;;;5035818;28;20323;-65
2020/12/04 11:12:01;;;;;;;48.75;25.27;;;2.60;99.90;;;;;;5035913;28;20025;-65
2020/12/04 11:14:27;;;;;;;50.50;22.98;;;2.60;99.90;;;;;;5032529;28;20300;-65
2020/12/04 11:16:53;;;;;;;47.30;23.42;;;2.70;99.90;;;;;;5031653;28;20037;-64
2020/12/04 11:19:19;;;;;;;52.08;24.33;;;2.70;99.90;;;;;;5031635;28;20033;-65
2020/12/04 11:21:44;;;;;;;47.63;23.45;;;2.70;99.90;;;;;;5036966;28;20142;-65
2020/12/04 11:24:10;;;;;;;47.15;22.70;;;2.60;99.90;;;;;;5034006;28;20041;-65
2020/12/04 11:26:36;;;;;;;52.00;24.92;;;2.60;99.90;;;;;;5032739;28;20046;-65
2020/12/04 11:29:02;;;;;;;44.08;23.67;;;2.60;99.90;;;;;;5021378;28;20025;-65
2020/12/04 11:31:28;;;;;;;43.92;23.20;;;2.60;99.90;;;;;;5031073;28;20032;-65
2020/12/04 11:33:54;;;;;;;49.72;26.42;;;2.60;99.90;;;;;;5033518;28;20511;-65
2020/12/04 11:36:20;;;;;;;48.38;25.13;;;2.70;99.90;;;;;;5033082;28;20322;-65
2020/12/04 11:38:45;;;;;;;46.67;23.45;;;2.70;99.90;;;;;;5028588;28;20047;-65
2020/12/04 11:41:11;;;;;;;46.00;23.15;;;2.60;99.90;;;;;;5035917;28;20053;-66
2020/12/04 11:43:37;;;;;;;52.83;24.55;;;2.60;99.90;;;;;;5031630;28;20029;-66
2020/12/04 11:46:03;;;;;;;47.33;24.05;;;2.60;99.90;;;;;;5038532;28;20355;-65
2020/12/04 11:48:29;;;;;;;59.78;25.08;;;2.60;99.90;;;;;;5025031;28;20476;-65
2020/12/04 11:50:55;;;;;;;50.83;24.30;;;2.60;99.90;;;;;;5036583;28;20095;-65
2020/12/04 11:53:22;;;;;;;45.00;24.27;;;2.60;99.90;;;;;;5029699;28;20562;-66
2020/12/04 11:55:48;;;;;;;49.97;25.45;;;2.50;99.90;;;;;;5035919;28;20127;-68
2020/12/04 11:58:13;;;;;;;52.38;25.13;;;2.50;99.90;;;;;;5035095;28;20035;-65
2020/12/04 12:00:39;;;;;;;49.38;24.35;;;2.50;99.90;;;;;;5036406;28;20447;-65
2020/12/04 12:03:05;;;;;;;51.33;23.77;;;2.50;99.90;;;;;;5035075;28;20383;-65
2020/12/04 12:05:31;;;;;;;50.53;24.77;;;2.50;99.90;;;;;;5030337;28;20037;-64
2020/12/04 12:07:58;;;;;;;44.08;23.90;;;2.50;99.90;;;;;;5037792;28;20483;-65
2020/12/04 12:10:23;;;;;;;52.42;24.13;;;2.50;99.90;;;;;;5035338;28;20118;-65
2020/12/04 12:12:51;;;;;;;47.10;24.52;;;2.50;99.90;;;;;;5030451;28;20588;-65
2020/12/04 12:15:16;;;;;;;51.15;24.50;;;2.60;99.90;;;;;;5036781;28;20037;-65
2020/12/04 12:17:42;;;;;;;47.28;23.00;;;2.60;99.90;;;;;;5034718;28;20025;-65
2020/12/04 12:20:08;;;;;;;47.95;24.25;;;2.50;99.90;;;;;;5037210;28;20428;-65
2020/12/04 12:22:34;;;;;;;51.65;23.75;;;2.50;99.90;;;;;;5035077;28;20037;-65
2020/12/04 12:25:00;;;;;;;46.88;24.15;;;2.50;99.90;;;;;;5035133;28;20112;-65
2020/12/04 12:27:26;;;;;;;46.90;24.90;;;2.60;99.90;;;;;;5035386;28;20713;-65
2020/12/04 12:29:56;;;;;;;47.33;24.52;;;2.70;99.90;;;;;;5034779;28;20485;-65
2020/12/04 12:32:23;;;;;;;49.20;23.50;;;2.60;99.90;;;;;;5034052;28;20565;-65
2020/12/04 12:35:03;;;;;;;45.88;24.33;;;2.60;99.90;;;;;;5034779;28;20029;-65
2020/12/04 12:37:33;;;;;;;47.83;23.95;;;2.60;99.90;;;;;;5033512;28;20060;-65
2020/12/04 12:40:00;;;;;;;;;;;2.60;99.90;;;;;;5035103;28;20037;-65
2020/12/04 12:42:26;;;;;;;52.80;23.63;;;2.60;99.90;;;;;;5040732;28;20339;-65
2020/12/04 12:44:52;;;;;;;50.35;25.27;;;2.60;99.90;;;;;;5037128;28;20139;-66
2020/12/04 12:47:18;;;;;;;51.65;24.88;;;2.60;99.90;;;;;;5038463;28;20029;-65